sensor_id;sensor_type;location;lat;lon;timestamp;temperature;humidity
21214;DHT22;10764;50.850;2.904;2023-03-12T00:02:21;20.50;47.30
21214;DHT22;10764;50.850;2.904;2023-03-12T00:04:48;20.40;47.30
21214;DHT22;10764;50.850;2.904;2023-03-12T00:07:15;17.50;45.90
21214;DHT22;10764;50.850;2.904;2023-03-12T00:09:41;18.40;46.30
21214;DHT22;10764;50.850;2.904;2023-03-12T00:12:08;19.10;46.70
21214;DHT22;10764;50.850;2.904;2023-03-12T00:14:35;18.10;46.30
21214;DHT22;10764;50.850;2.904;2023-03-12T00:17:02;18.60;46.50
21214;DHT22;10764;50.850;2.904;2023-03-12T00:19:29;18.10;46.30
21214;DHT22;10764;50.850;2.904;2023-03-12T00:21:55;20.20;47.40
21214;DHT22;10764;50.850;2.904;2023-03-12T00:24:22;19.70;47.20
21214;DHT22;10764;50.850;2.904;2023-03-12T00:26:49;17.50;46.10
21214;DHT22;10764;50.850;2.904;2023-03-12T00:29:16;19.50;47.10
21214;DHT22;10764;50.850;2.904;2023-03-12T00:31:43;17.50;46.10
21214;DHT22;10764;50.850;2.904;2023-03-12T00:34:10;17.50;46.20
21214;DHT22;10764;50.850;2.904;2023-03-12T00:36:37;17.50;46.20
21214;DHT22;10764;50.850;2.904;2023-03-12T00:39:06;20.10;47.40
21214;DHT22;10764;50.850;2.904;2023-03-12T00:41:33;17.50;46.20
21214;DHT22;10764;50.850;2.904;2023-03-12T00:44:00;17.50;46.20
21214;DHT22;10764;50.850;2.904;2023-03-12T00:46:27;17.50;46.20
21214;DHT22;10764;50.850;2.904;2023-03-12T00:48:53;18.00;46.50
21214;DHT22;10764;50.850;2.904;2023-03-12T00:51:20;17.50;46.30
21214;DHT22;10764;50.850;2.904;2023-03-12T00:53:47;17.60;46.30
21214;DHT22;10764;50.850;2.904;2023-03-12T00:56:14;17.50;46.30
21214;DHT22;10764;50.850;2.904;2023-03-12T00:58:41;20.10;47.60
21214;DHT22;10764;50.850;2.904;2023-03-12T01:01:09;19.70;47.40
21214;DHT22;10764;50.850;2.904;2023-03-12T01:03:36;17.50;46.40
21214;DHT22;10764;50.850;2.904;2023-03-12T01:06:04;18.40;46.90
21214;DHT22;10764;50.850;2.904;2023-03-12T01:08:31;17.50;46.50
21214;DHT22;10764;50.850;2.904;2023-03-12T01:10:59;19.80;47.70
21214;DHT22;10764;50.850;2.904;2023-03-12T01:13:25;17.50;46.60
21214;DHT22;10764;50.850;2.904;2023-03-12T01:15:52;17.50;46.70
21214;DHT22;10764;50.850;2.904;2023-03-12T01:18:19;19.00;47.40
21214;DHT22;10764;50.850;2.904;2023-03-12T01:20:47;19.10;47.50
21214;DHT22;10764;50.850;2.904;2023-03-12T01:23:14;20.20;48.10
21214;DHT22;10764;50.850;2.904;2023-03-12T01:25:41;19.60;47.80
21214;DHT22;10764;50.850;2.904;2023-03-12T01:28:09;18.50;47.30
21214;DHT22;10764;50.850;2.904;2023-03-12T01:30:35;19.90;48.10
21214;DHT22;10764;50.850;2.904;2023-03-12T01:33:03;17.50;46.90
21214;DHT22;10764;50.850;2.904;2023-03-12T01:35:35;18.30;47.30
21214;DHT22;10764;50.850;2.904;2023-03-12T01:38:02;17.60;47.10
21214;DHT22;10764;50.850;2.904;2023-03-12T01:40:33;17.50;47.00
21214;DHT22;10764;50.850;2.904;2023-03-12T01:46:15;17.50;47.10
21214;DHT22;10764;50.850;2.904;2023-03-12T01:51:17;18.20;47.50
21214;DHT22;10764;50.850;2.904;2023-03-12T01:53:47;19.60;48.20
21214;DHT22;10764;50.850;2.904;2023-03-12T01:56:16;17.50;47.20
21214;DHT22;10764;50.850;2.904;2023-03-12T01:58:48;19.20;48.10
21214;DHT22;10764;50.850;2.904;2023-03-12T02:01:17;19.30;48.10
21214;DHT22;10764;50.850;2.904;2023-03-12T02:03:46;18.60;47.80
21214;DHT22;10764;50.850;2.904;2023-03-12T02:06:19;18.00;47.50
21214;DHT22;10764;50.850;2.904;2023-03-12T02:08:46;18.30;47.80
21214;DHT22;10764;50.850;2.904;2023-03-12T02:11:13;20.40;48.90
21214;DHT22;10764;50.850;2.904;2023-03-12T02:13:40;18.10;47.70
21214;DHT22;10764;50.850;2.904;2023-03-12T02:16:08;20.90;49.10
21214;DHT22;10764;50.850;2.904;2023-03-12T02:18:35;17.50;47.50
21214;DHT22;10764;50.850;2.904;2023-03-12T02:21:24;17.80;47.70
21214;DHT22;10764;50.850;2.904;2023-03-12T02:26:47;17.50;47.60
21214;DHT22;10764;50.850;2.904;2023-03-12T02:29:15;19.00;48.40
21214;DHT22;10764;50.850;2.904;2023-03-12T02:31:46;18.10;47.90
21214;DHT22;10764;50.850;2.904;2023-03-12T02:34:14;19.60;48.70
21214;DHT22;10764;50.850;2.904;2023-03-12T02:36:41;20.10;49.00
21214;DHT22;10764;50.850;2.904;2023-03-12T02:39:10;18.00;48.00
21214;DHT22;10764;50.850;2.904;2023-03-12T02:41:43;20.70;49.30
21214;DHT22;10764;50.850;2.904;2023-03-12T02:44:17;17.90;47.90
21214;DHT22;10764;50.850;2.904;2023-03-12T02:46:49;17.50;47.80
21214;DHT22;10764;50.850;2.904;2023-03-12T02:49:18;18.30;48.20
21214;DHT22;10764;50.850;2.904;2023-03-12T02:51:46;18.20;48.20
21214;DHT22;10764;50.850;2.904;2023-03-12T02:54:15;18.50;48.50
21214;DHT22;10764;50.850;2.904;2023-03-12T02:56:42;18.10;48.20
21214;DHT22;10764;50.850;2.904;2023-03-12T02:59:10;19.50;49.00
21214;DHT22;10764;50.850;2.904;2023-03-12T03:01:40;17.50;48.00
21214;DHT22;10764;50.850;2.904;2023-03-12T03:04:09;19.80;49.20
21214;DHT22;10764;50.850;2.904;2023-03-12T03:06:39;20.40;49.50
21214;DHT22;10764;50.850;2.904;2023-03-12T03:09:06;17.50;48.10
21214;DHT22;10764;50.850;2.904;2023-03-12T03:11:33;18.80;48.90
21214;DHT22;10764;50.850;2.904;2023-03-12T03:14:02;18.20;48.60
21214;DHT22;10764;50.850;2.904;2023-03-12T03:16:29;18.40;48.70
21214;DHT22;10764;50.850;2.904;2023-03-12T03:18:57;17.80;48.50
21214;DHT22;10764;50.850;2.904;2023-03-12T03:21:24;18.30;48.70
21214;DHT22;10764;50.850;2.904;2023-03-12T03:23:51;19.30;49.30
21214;DHT22;10764;50.850;2.904;2023-03-12T03:26:19;17.50;48.40
21214;DHT22;10764;50.850;2.904;2023-03-12T03:28:48;20.00;49.70
21214;DHT22;10764;50.850;2.904;2023-03-12T03:31:16;18.10;48.70
21214;DHT22;10764;50.850;2.904;2023-03-12T03:33:44;18.80;49.50
21214;DHT22;10764;50.850;2.904;2023-03-12T03:36:12;19.00;49.30
21214;DHT22;10764;50.850;2.904;2023-03-12T03:38:47;18.60;49.10
21214;DHT22;10764;50.850;2.904;2023-03-12T03:41:18;17.50;48.50
21214;DHT22;10764;50.850;2.904;2023-03-12T03:43:46;17.50;48.60
21214;DHT22;10764;50.850;2.904;2023-03-12T03:46:15;18.90;49.30
21214;DHT22;10764;50.850;2.904;2023-03-12T03:48:46;19.10;49.40
21214;DHT22;10764;50.850;2.904;2023-03-12T03:51:13;17.50;48.70
21214;DHT22;10764;50.850;2.904;2023-03-12T03:53:43;19.80;49.80
21214;DHT22;10764;50.850;2.904;2023-03-12T03:56:13;20.50;50.20
21214;DHT22;10764;50.850;2.904;2023-03-12T03:58:44;18.40;49.20
21214;DHT22;10764;50.850;2.904;2023-03-12T04:01:13;18.20;49.10
21214;DHT22;10764;50.850;2.904;2023-03-12T04:03:41;17.60;48.90
21214;DHT22;10764;50.850;2.904;2023-03-12T04:06:08;20.40;50.30
21214;DHT22;10764;50.850;2.904;2023-03-12T04:08:36;20.00;50.10
21214;DHT22;10764;50.850;2.904;2023-03-12T04:11:12;20.00;50.20
21214;DHT22;10764;50.850;2.904;2023-03-12T04:13:41;20.50;50.30
21214;DHT22;10764;50.850;2.904;2023-03-12T04:16:09;19.60;50.00
21214;DHT22;10764;50.850;2.904;2023-03-12T04:18:36;18.30;49.30
21214;DHT22;10764;50.850;2.904;2023-03-12T04:21:05;19.70;50.10
21214;DHT22;10764;50.850;2.904;2023-03-12T04:23:32;17.90;49.20
21214;DHT22;10764;50.850;2.904;2023-03-12T04:25:59;19.60;50.10
21214;DHT22;10764;50.850;2.904;2023-03-12T04:28:28;17.50;49.20
21214;DHT22;10764;50.850;2.904;2023-03-12T04:30:59;19.70;50.20
21214;DHT22;10764;50.850;2.904;2023-03-12T04:33:34;17.50;49.10
21214;DHT22;10764;50.850;2.904;2023-03-12T04:36:01;17.50;49.20
21214;DHT22;10764;50.850;2.904;2023-03-12T04:38:29;17.70;49.30
21214;DHT22;10764;50.850;2.904;2023-03-12T04:41:07;18.10;49.50
21214;DHT22;10764;50.850;2.904;2023-03-12T04:43:37;19.00;50.00
21214;DHT22;10764;50.850;2.904;2023-03-12T04:46:04;20.40;50.70
21214;DHT22;10764;50.850;2.904;2023-03-12T04:48:32;17.50;49.30
21214;DHT22;10764;50.850;2.904;2023-03-12T04:50:58;20.20;50.70
21214;DHT22;10764;50.850;2.904;2023-03-12T04:53:25;17.50;49.40
21214;DHT22;10764;50.850;2.904;2023-03-12T04:55:52;17.90;49.60
21214;DHT22;10764;50.850;2.904;2023-03-12T04:58:20;17.50;49.50
21214;DHT22;10764;50.850;2.904;2023-03-12T05:00:48;20.00;50.70
21214;DHT22;10764;50.850;2.904;2023-03-12T05:03:16;17.50;49.50
21214;DHT22;10764;50.850;2.904;2023-03-12T05:05:44;18.20;50.60
21214;DHT22;10764;50.850;2.904;2023-03-12T05:08:11;17.50;49.60
21214;DHT22;10764;50.850;2.904;2023-03-12T05:10:38;17.50;49.70
21214;DHT22;10764;50.850;2.904;2023-03-12T05:13:18;20.10;50.90
21214;DHT22;10764;50.850;2.904;2023-03-12T05:15:47;17.50;49.70
21214;DHT22;10764;50.850;2.904;2023-03-12T05:18:17;17.50;49.70
21214;DHT22;10764;50.850;2.904;2023-03-12T05:20:46;17.80;50.00
21214;DHT22;10764;50.850;2.904;2023-03-12T05:23:13;17.90;50.00
21214;DHT22;10764;50.850;2.904;2023-03-12T05:25:40;18.60;50.50
21214;DHT22;10764;50.850;2.904;2023-03-12T05:28:07;18.50;50.40
21214;DHT22;10764;50.850;2.904;2023-03-12T05:30:38;20.20;51.20
21214;DHT22;10764;50.850;2.904;2023-03-12T05:33:05;17.80;50.10
21214;DHT22;10764;50.850;2.904;2023-03-12T05:35:31;19.50;50.90
21214;DHT22;10764;50.850;2.904;2023-03-12T05:37:58;20.20;51.40
21214;DHT22;10764;50.850;2.904;2023-03-12T05:40:25;18.10;50.40
21214;DHT22;10764;50.850;2.904;2023-03-12T05:42:52;20.00;51.30
21214;DHT22;10764;50.850;2.904;2023-03-12T05:45:22;17.60;50.10
21214;DHT22;10764;50.850;2.904;2023-03-12T05:47:51;18.80;50.80
21214;DHT22;10764;50.850;2.904;2023-03-12T05:50:18;18.70;50.70
21214;DHT22;10764;50.850;2.904;2023-03-12T05:52:45;17.50;50.20
21214;DHT22;10764;50.850;2.904;2023-03-12T05:55:12;19.30;51.10
21214;DHT22;10764;50.850;2.904;2023-03-12T05:57:39;18.10;50.50
21214;DHT22;10764;50.850;2.904;2023-03-12T06:00:06;19.30;51.10
21214;DHT22;10764;50.850;2.904;2023-03-12T06:02:38;17.50;50.20
21214;DHT22;10764;50.850;2.904;2023-03-12T06:05:09;20.50;52.40
21214;DHT22;10764;50.850;2.904;2023-03-12T06:07:36;19.70;51.30
21214;DHT22;10764;50.850;2.904;2023-03-12T06:10:04;18.60;50.80
21214;DHT22;10764;50.850;2.904;2023-03-12T06:12:31;17.50;50.30
21214;DHT22;10764;50.850;2.904;2023-03-12T06:14:57;19.30;51.10
21214;DHT22;10764;50.850;2.904;2023-03-12T06:17:28;18.30;50.70
21214;DHT22;10764;50.850;2.904;2023-03-12T06:19:55;19.50;51.20
21214;DHT22;10764;50.850;2.904;2023-03-12T06:22:21;19.70;51.30
21214;DHT22;10764;50.850;2.904;2023-03-12T06:24:48;19.70;51.40
21214;DHT22;10764;50.850;2.904;2023-03-12T06:27:17;19.60;51.40
21214;DHT22;10764;50.850;2.904;2023-03-12T06:29:43;19.50;51.30
21214;DHT22;10764;50.850;2.904;2023-03-12T06:32:13;17.60;50.40
21214;DHT22;10764;50.850;2.904;2023-03-12T06:34:40;18.10;51.30
21214;DHT22;10764;50.850;2.904;2023-03-12T06:37:07;20.50;51.80
21214;DHT22;10764;50.850;2.904;2023-03-12T06:39:34;18.70;51.00
21214;DHT22;10764;50.850;2.904;2023-03-12T06:42:01;19.40;51.30
21214;DHT22;10764;50.850;2.904;2023-03-12T06:44:27;18.30;50.90
21214;DHT22;10764;50.850;2.904;2023-03-12T06:46:54;20.00;51.90
21214;DHT22;10764;50.850;2.904;2023-03-12T06:49:22;18.30;51.10
21214;DHT22;10764;50.850;2.904;2023-03-12T06:51:49;18.00;51.00
21214;DHT22;10764;50.850;2.904;2023-03-12T06:54:16;18.70;51.40
21214;DHT22;10764;50.850;2.904;2023-03-12T06:56:43;20.20;52.20
21214;DHT22;10764;50.850;2.904;2023-03-12T06:59:09;17.90;51.10
21214;DHT22;10764;50.850;2.904;2023-03-12T07:01:36;17.60;50.90
21214;DHT22;10764;50.850;2.904;2023-03-12T07:04:03;18.60;51.40
21214;DHT22;10764;50.850;2.904;2023-03-12T07:06:30;17.60;51.00
21214;DHT22;10764;50.850;2.904;2023-03-12T07:08:57;18.50;51.40
21214;DHT22;10764;50.850;2.904;2023-03-12T07:11:23;18.70;51.50
21214;DHT22;10764;50.850;2.904;2023-03-12T07:13:50;19.70;52.10
21214;DHT22;10764;50.850;2.904;2023-03-12T07:16:17;18.70;51.70
21214;DHT22;10764;50.850;2.904;2023-03-12T07:18:44;20.40;52.50
21214;DHT22;10764;50.850;2.904;2023-03-12T07:21:11;20.60;52.70
21214;DHT22;10764;50.850;2.904;2023-03-12T07:23:38;19.70;52.20
21214;DHT22;10764;50.850;2.904;2023-03-12T07:26:05;18.20;51.40
21214;DHT22;10764;50.850;2.904;2023-03-12T07:28:32;18.40;51.60
21214;DHT22;10764;50.850;2.904;2023-03-12T07:31:01;20.00;52.40
21214;DHT22;10764;50.850;2.904;2023-03-12T07:33:28;18.10;51.40
21214;DHT22;10764;50.850;2.904;2023-03-12T07:35:55;19.40;52.00
21214;DHT22;10764;50.850;2.904;2023-03-12T07:38:22;18.70;51.80
21214;DHT22;10764;50.850;2.904;2023-03-12T07:40:54;17.80;51.50
21214;DHT22;10764;50.850;2.904;2023-03-12T07:43:22;18.30;51.80
21214;DHT22;10764;50.850;2.904;2023-03-12T07:45:52;18.10;51.80
21214;DHT22;10764;50.850;2.904;2023-03-12T07:48:19;20.80;53.30
21214;DHT22;10764;50.850;2.904;2023-03-12T07:50:46;18.50;52.50
21214;DHT22;10764;50.850;2.904;2023-03-12T07:53:14;20.10;52.90
21214;DHT22;10764;50.850;2.904;2023-03-12T07:55:43;18.90;52.30
21214;DHT22;10764;50.850;2.904;2023-03-12T07:58:12;18.40;52.10
21214;DHT22;10764;50.850;2.904;2023-03-12T08:00:39;18.80;52.80
21214;DHT22;10764;50.850;2.904;2023-03-12T08:03:06;18.00;52.90
21214;DHT22;10764;50.850;2.904;2023-03-12T08:05:33;19.40;53.90
21214;DHT22;10764;50.850;2.904;2023-03-12T08:08:00;19.50;54.10
21214;DHT22;10764;50.850;2.904;2023-03-12T08:10:27;21.10;55.00
21214;DHT22;10764;50.850;2.904;2023-03-12T08:12:54;18.10;53.60
21214;DHT22;10764;50.850;2.904;2023-03-12T08:15:21;20.30;54.90
21214;DHT22;10764;50.850;2.904;2023-03-12T08:17:47;18.00;53.90
21214;DHT22;10764;50.850;2.904;2023-03-12T08:20:14;19.20;54.50
21214;DHT22;10764;50.850;2.904;2023-03-12T08:22:41;18.00;54.00
21214;DHT22;10764;50.850;2.904;2023-03-12T08:25:08;19.60;54.70
21214;DHT22;10764;50.850;2.904;2023-03-12T08:27:35;19.20;54.50
21214;DHT22;10764;50.850;2.904;2023-03-12T08:30:04;18.40;54.10
21214;DHT22;10764;50.850;2.904;2023-03-12T08:32:32;18.10;53.80
21214;DHT22;10764;50.850;2.904;2023-03-12T08:34:59;18.20;53.90
21214;DHT22;10764;50.850;2.904;2023-03-12T08:37:26;19.40;54.40
21214;DHT22;10764;50.850;2.904;2023-03-12T08:39:53;19.70;54.50
21214;DHT22;10764;50.850;2.904;2023-03-12T08:42:20;19.50;55.10
21214;DHT22;10764;50.850;2.904;2023-03-12T08:44:47;18.30;53.70
21214;DHT22;10764;50.850;2.904;2023-03-12T08:47:13;19.20;54.20
21214;DHT22;10764;50.850;2.904;2023-03-12T08:49:40;20.40;54.70
21214;DHT22;10764;50.850;2.904;2023-03-12T08:52:07;18.80;53.90
21214;DHT22;10764;50.850;2.904;2023-03-12T08:54:34;18.60;53.80
21214;DHT22;10764;50.850;2.904;2023-03-12T08:57:00;18.40;53.60
21214;DHT22;10764;50.850;2.904;2023-03-12T08:59:27;19.50;54.20
21214;DHT22;10764;50.850;2.904;2023-03-12T09:01:55;18.20;53.50
21214;DHT22;10764;50.850;2.904;2023-03-12T09:04:22;18.80;53.80
21214;DHT22;10764;50.850;2.904;2023-03-12T09:06:48;19.30;54.00
21214;DHT22;10764;50.850;2.904;2023-03-12T09:09:15;19.10;53.90
21214;DHT22;10764;50.850;2.904;2023-03-12T09:11:42;20.20;54.40
21214;DHT22;10764;50.850;2.904;2023-03-12T09:14:09;18.60;53.60
21214;DHT22;10764;50.850;2.904;2023-03-12T09:16:56;18.80;53.70
21214;DHT22;10764;50.850;2.904;2023-03-12T09:19:23;18.20;53.30
21214;DHT22;10764;50.850;2.904;2023-03-12T09:21:50;18.20;53.30
21214;DHT22;10764;50.850;2.904;2023-03-12T09:24:17;18.20;53.30
21214;DHT22;10764;50.850;2.904;2023-03-12T09:26:44;20.70;54.50
21214;DHT22;10764;50.850;2.904;2023-03-12T09:29:10;20.70;54.50
21214;DHT22;10764;50.850;2.904;2023-03-12T09:31:37;20.40;54.40
21214;DHT22;10764;50.850;2.904;2023-03-12T09:34:04;19.30;53.90
21214;DHT22;10764;50.850;2.904;2023-03-12T09:36:32;18.20;53.30
21214;DHT22;10764;50.850;2.904;2023-03-12T09:38:59;18.40;53.40
21214;DHT22;10764;50.850;2.904;2023-03-12T09:41:28;19.00;53.80
21214;DHT22;10764;50.850;2.904;2023-03-12T09:44:06;18.30;53.40
21214;DHT22;10764;50.850;2.904;2023-03-12T09:46:46;20.60;54.50
21214;DHT22;10764;50.850;2.904;2023-03-12T09:51:54;18.20;53.30
21214;DHT22;10764;50.850;2.904;2023-03-12T09:54:40;21.30;54.80
21214;DHT22;10764;50.850;2.904;2023-03-12T09:57:21;18.20;53.30
21214;DHT22;10764;50.850;2.904;2023-03-12T09:59:49;18.20;53.30
21214;DHT22;10764;50.850;2.904;2023-03-12T10:14:01;18.20;53.10
21214;DHT22;10764;50.850;2.904;2023-03-12T10:27:13;20.10;54.00
21214;DHT22;10764;50.850;2.904;2023-03-12T10:29:43;19.70;53.80
21214;DHT22;10764;50.850;2.904;2023-03-12T10:32:18;20.70;54.30
21214;DHT22;10764;50.850;2.904;2023-03-12T10:34:55;18.30;53.10
21214;DHT22;10764;50.850;2.904;2023-03-12T10:37:43;21.30;54.40
21214;DHT22;10764;50.850;2.904;2023-03-12T10:40:17;19.80;53.70
21214;DHT22;10764;50.850;2.904;2023-03-12T10:42:44;18.30;52.90
21214;DHT22;10764;50.850;2.904;2023-03-12T10:45:43;20.30;53.80
21214;DHT22;10764;50.850;2.904;2023-03-12T10:48:19;18.20;52.80
21214;DHT22;10764;50.850;2.904;2023-03-12T10:51:06;20.10;53.70
21214;DHT22;10764;50.850;2.904;2023-03-12T10:53:34;19.30;53.30
21214;DHT22;10764;50.850;2.904;2023-03-12T10:56:09;18.60;52.90
21214;DHT22;10764;50.850;2.904;2023-03-12T10:58:49;18.20;52.70
21214;DHT22;10764;50.850;2.904;2023-03-12T11:01:26;18.20;52.60
21214;DHT22;10764;50.850;2.904;2023-03-12T11:06:34;18.20;52.60
21214;DHT22;10764;50.850;2.904;2023-03-12T11:09:17;18.20;52.60
21214;DHT22;10764;50.850;2.904;2023-03-12T11:11:46;18.20;52.50
21214;DHT22;10764;50.850;2.904;2023-03-12T11:14:25;18.20;52.50
21214;DHT22;10764;50.850;2.904;2023-03-12T11:16:55;20.40;53.60
21214;DHT22;10764;50.850;2.904;2023-03-12T11:19:30;21.20;53.90
21214;DHT22;10764;50.850;2.904;2023-03-12T11:22:00;18.40;52.50
21214;DHT22;10764;50.850;2.904;2023-03-12T11:24:27;19.00;53.50
21214;DHT22;10764;50.850;2.904;2023-03-12T11:27:19;19.50;53.10
21214;DHT22;10764;50.850;2.904;2023-03-12T11:29:49;18.30;52.40
21214;DHT22;10764;50.850;2.904;2023-03-12T11:32:35;19.20;52.90
21214;DHT22;10764;50.850;2.904;2023-03-12T11:35:09;18.60;52.50
21214;DHT22;10764;50.850;2.904;2023-03-12T11:43:41;18.30;52.30
21214;DHT22;10764;50.850;2.904;2023-03-12T11:48:53;18.20;52.20
21214;DHT22;10764;50.850;2.904;2023-03-12T11:59:58;18.20;52.10
21214;DHT22;10764;50.850;2.904;2023-03-12T12:05:37;18.30;52.10
21214;DHT22;10764;50.850;2.904;2023-03-12T12:10:49;18.30;52.10
21214;DHT22;10764;50.850;2.904;2023-03-12T12:13:23;18.20;52.00
21214;DHT22;10764;50.850;2.904;2023-03-12T12:27:21;18.30;52.00
21214;DHT22;10764;50.850;2.904;2023-03-12T12:30:02;19.40;52.60
21214;DHT22;10764;50.850;2.904;2023-03-12T12:32:59;18.30;52.00
21214;DHT22;10764;50.850;2.904;2023-03-12T12:35:37;18.20;52.00
21214;DHT22;10764;50.850;2.904;2023-03-12T12:43:45;19.00;52.90
21214;DHT22;10764;50.850;2.904;2023-03-12T12:46:19;20.80;53.30
21214;DHT22;10764;50.850;2.904;2023-03-12T12:48:56;18.20;52.00
21214;DHT22;10764;50.850;2.904;2023-03-12T12:51:57;18.20;52.00
21214;DHT22;10764;50.850;2.904;2023-03-12T13:00:24;18.20;52.00
21214;DHT22;10764;50.850;2.904;2023-03-12T13:02:57;18.20;52.00
21214;DHT22;10764;50.850;2.904;2023-03-12T13:05:43;18.30;52.10
21214;DHT22;10764;50.850;2.904;2023-03-12T13:11:06;18.30;52.20
21214;DHT22;10764;50.850;2.904;2023-03-12T13:14:10;18.30;52.10
21214;DHT22;10764;50.850;2.904;2023-03-12T13:16:39;19.40;52.70
21214;DHT22;10764;50.850;2.904;2023-03-12T13:22:06;19.50;52.80
21214;DHT22;10764;50.850;2.904;2023-03-12T13:24:53;18.30;52.10
21214;DHT22;10764;50.850;2.904;2023-03-12T13:27:28;20.70;53.30
21214;DHT22;10764;50.850;2.904;2023-03-12T13:29:55;20.60;53.20
21214;DHT22;10764;50.850;2.904;2023-03-12T13:32:38;19.20;52.60
21214;DHT22;10764;50.850;2.904;2023-03-12T13:40:36;18.30;52.10
21214;DHT22;10764;50.850;2.904;2023-03-12T13:43:31;18.30;52.10
21214;DHT22;10764;50.850;2.904;2023-03-12T13:48:46;18.30;52.20
21214;DHT22;10764;50.850;2.904;2023-03-12T13:51:22;18.40;52.10
21214;DHT22;10764;50.850;2.904;2023-03-12T13:53:55;18.30;52.10
21214;DHT22;10764;50.850;2.904;2023-03-12T13:56:31;20.90;53.20
21214;DHT22;10764;50.850;2.904;2023-03-12T13:59:04;20.00;52.80
21214;DHT22;10764;50.850;2.904;2023-03-12T14:01:54;18.40;52.10
21214;DHT22;10764;50.850;2.904;2023-03-12T14:04:39;19.70;52.80
21214;DHT22;10764;50.850;2.904;2023-03-12T14:15:28;18.40;52.30
21214;DHT22;10764;50.850;2.904;2023-03-12T14:18:01;18.60;52.50
21214;DHT22;10764;50.850;2.904;2023-03-12T14:20:30;20.70;53.60
21214;DHT22;10764;50.850;2.904;2023-03-12T14:23:01;18.30;52.50
21214;DHT22;10764;50.850;2.904;2023-03-12T14:25:42;19.30;53.00
21214;DHT22;10764;50.850;2.904;2023-03-12T14:28:16;18.30;52.50
21214;DHT22;10764;50.850;2.904;2023-03-12T14:33:12;18.30;52.60
21214;DHT22;10764;50.850;2.904;2023-03-12T14:35:54;19.70;53.20
21214;DHT22;10764;50.850;2.904;2023-03-12T14:38:30;18.30;52.60
21214;DHT22;10764;50.850;2.904;2023-03-12T14:41:17;19.90;53.40
21214;DHT22;10764;50.850;2.904;2023-03-12T14:43:45;18.30;52.70
21214;DHT22;10764;50.850;2.904;2023-03-12T14:46:23;18.30;52.70
21214;DHT22;10764;50.850;2.904;2023-03-12T14:48:52;18.30;52.70
21214;DHT22;10764;50.850;2.904;2023-03-12T14:51:28;18.90;53.00
21214;DHT22;10764;50.850;2.904;2023-03-12T14:54:01;18.30;52.70
21214;DHT22;10764;50.850;2.904;2023-03-12T14:56:31;18.80;53.00
21214;DHT22;10764;50.850;2.904;2023-03-12T14:59:23;19.90;53.50
21214;DHT22;10764;50.850;2.904;2023-03-12T15:01:47;19.50;53.30
21214;DHT22;10764;50.850;2.904;2023-03-12T15:04:20;19.70;53.40
21214;DHT22;10764;50.850;2.904;2023-03-12T15:06:48;18.30;52.70
21214;DHT22;10764;50.850;2.904;2023-03-12T15:09:21;19.90;53.50
21214;DHT22;10764;50.850;2.904;2023-03-12T15:11:55;18.90;53.00
21214;DHT22;10764;50.850;2.904;2023-03-12T15:14:23;19.90;53.50
21214;DHT22;10764;50.850;2.904;2023-03-12T15:16:52;20.80;54.00
21214;DHT22;10764;50.850;2.904;2023-03-12T15:19:25;19.50;53.30
21214;DHT22;10764;50.850;2.904;2023-03-12T15:21:52;18.20;52.70
21214;DHT22;10764;50.850;2.904;2023-03-12T15:24:20;19.40;53.30
21214;DHT22;10764;50.850;2.904;2023-03-12T15:26:46;19.40;53.30
21214;DHT22;10764;50.850;2.904;2023-03-12T15:29:27;18.90;53.00
21214;DHT22;10764;50.850;2.904;2023-03-12T15:31:59;18.40;52.80
21214;DHT22;10764;50.850;2.904;2023-03-12T15:34:37;18.20;52.70
21214;DHT22;10764;50.850;2.904;2023-03-12T15:37:26;18.20;52.60
21214;DHT22;10764;50.850;2.904;2023-03-12T15:40:06;18.20;52.70
21214;DHT22;10764;50.850;2.904;2023-03-12T15:42:43;18.20;52.70
21214;DHT22;10764;50.850;2.904;2023-03-12T15:45:20;19.10;53.10
21214;DHT22;10764;50.850;2.904;2023-03-12T15:47:50;18.20;52.70
21214;DHT22;10764;50.850;2.904;2023-03-12T15:53:02;18.20;52.60
21214;DHT22;10764;50.850;2.904;2023-03-12T15:55:31;19.90;53.40
21214;DHT22;10764;50.850;2.904;2023-03-12T15:57:59;20.20;53.60
21214;DHT22;10764;50.850;2.904;2023-03-12T16:00:43;19.10;53.00
21214;DHT22;10764;50.850;2.904;2023-03-12T16:03:19;18.20;52.60
21214;DHT22;10764;50.850;2.904;2023-03-12T16:05:48;18.80;52.90
21214;DHT22;10764;50.850;2.904;2023-03-12T16:08:21;18.90;52.90
21214;DHT22;10764;50.850;2.904;2023-03-12T16:10:51;18.50;52.80
21214;DHT22;10764;50.850;2.904;2023-03-12T16:13:20;19.00;53.10
21214;DHT22;10764;50.850;2.904;2023-03-12T16:15:47;19.80;53.40
21214;DHT22;10764;50.850;2.904;2023-03-12T16:18:16;18.70;53.10
21214;DHT22;10764;50.850;2.904;2023-03-12T16:20:44;19.40;53.20
21214;DHT22;10764;50.850;2.904;2023-03-12T16:23:12;19.40;53.30
21214;DHT22;10764;50.850;2.904;2023-03-12T16:25:42;18.20;52.70
21214;DHT22;10764;50.850;2.904;2023-03-12T16:28:12;19.70;53.40
21214;DHT22;10764;50.850;2.904;2023-03-12T16:30:40;20.90;54.00
21214;DHT22;10764;50.850;2.904;2023-03-12T16:33:07;18.20;52.80
21214;DHT22;10764;50.850;2.904;2023-03-12T16:35:35;20.80;54.00
21214;DHT22;10764;50.850;2.904;2023-03-12T16:38:02;18.80;53.00
21214;DHT22;10764;50.850;2.904;2023-03-12T16:40:32;19.40;53.30
21214;DHT22;10764;50.850;2.904;2023-03-12T16:43:01;19.50;53.40
21214;DHT22;10764;50.850;2.904;2023-03-12T16:45:30;18.40;52.80
21214;DHT22;10764;50.850;2.904;2023-03-12T16:48:01;18.10;52.70
21214;DHT22;10764;50.850;2.904;2023-03-12T16:50:28;20.90;54.10
21214;DHT22;10764;50.850;2.904;2023-03-12T16:52:55;18.10;52.70
21214;DHT22;10764;50.850;2.904;2023-03-12T16:55:25;18.80;53.10
21214;DHT22;10764;50.850;2.904;2023-03-12T16:57:55;18.80;53.10
21214;DHT22;10764;50.850;2.904;2023-03-12T17:00:28;18.70;53.00
21214;DHT22;10764;50.850;2.904;2023-03-12T17:02:56;18.10;52.70
21214;DHT22;10764;50.850;2.904;2023-03-12T17:05:25;19.40;53.50
21214;DHT22;10764;50.850;2.904;2023-03-12T17:07:53;19.40;54.20
21214;DHT22;10764;50.850;2.904;2023-03-12T17:10:20;19.40;53.60
21214;DHT22;10764;50.850;2.904;2023-03-12T17:12:47;20.40;54.20
21214;DHT22;10764;50.850;2.904;2023-03-12T17:15:20;20.90;54.40
21214;DHT22;10764;50.850;2.904;2023-03-12T17:17:48;21.30;54.60
21214;DHT22;10764;50.850;2.904;2023-03-12T17:20:19;20.10;54.10
21214;DHT22;10764;50.850;2.904;2023-03-12T17:22:46;18.10;53.10
21214;DHT22;10764;50.850;2.904;2023-03-12T17:25:21;20.90;54.60
21214;DHT22;10764;50.850;2.904;2023-03-12T17:27:48;18.10;53.20
21214;DHT22;10764;50.850;2.904;2023-03-12T17:30:15;18.20;53.30
21214;DHT22;10764;50.850;2.904;2023-03-12T17:32:43;18.10;53.40
21214;DHT22;10764;50.850;2.904;2023-03-12T17:35:10;19.70;54.00
21214;DHT22;10764;50.850;2.904;2023-03-12T17:37:37;18.10;53.30
21214;DHT22;10764;50.850;2.904;2023-03-12T17:40:04;20.60;54.50